< Cyclone 201609 2016 Season Cyclone 201614 >
Cyclone 201610 (Tatiana)
General InformationTrack Information on Google MapsDetailed Wind InformationList of All Images || ResourceGoogle EarthGE AnimationAtom FeedGeoJSON
Detalied Best Track (Time Zone = UTC)
Year Month Day Hour Lat. Long. Pressure (hPa) Wind (kt) Class Image Chart
2016 2 9 06 -17.3 153.9 1001 20 2 Image --
2016 2 9 12 -16.7 154.0 1001 20 2 Image --
2016 2 9 18 -16.2 154.2 1001 20 2 Image --
2016 2 10 00 -15.9 154.6 1001 25 2 Image --
2016 2 10 06 -15.9 155.6 1001 25 2 Image --
2016 2 10 12 -16.1 156.4 1002 25 2 Image --
2016 2 10 18 -16.4 156.8 998 30 2 Image --
2016 2 11 00 -16.7 157.4 996 30 2 Image --
2016 2 11 06 -16.8 157.9 992 35 3 Image --
2016 2 11 12 -16.7 158.3 996 35 3 Image --
2016 2 11 18 -17.0 158.8 990 40 3 Image --
2016 2 12 00 -17.1 159.4 987 45 3 Image --
2016 2 12 06 -18.1 159.8 983 50 4 Image --
2016 2 12 12 -18.9 160.0 982 50 4 Image --
2016 2 12 18 -19.9 160.2 983 50 4 Image --
2016 2 13 00 -20.9 160.5 984 50 4 Image --
2016 2 13 06 -22.5 160.3 990 40 3 Image --
2016 2 13 12 -24.0 160.3 997 30 2 Image --
2016 2 13 18 -25.2 159.7 996 30 2 Image --
2016 2 14 00 -25.9 159.2 995 30 2 Image --
2016 2 14 06 -25.9 159.0 995 0 0 Image --
2016 2 14 12 -25.5 158.7 995 0 0 Image --
2016 2 14 18 -25.1 158.3 995 0 0 Image --
2016 2 15 00 -24.7 158.4 995 0 0 Image --
2016 2 15 06 -24.3 158.7 995 0 0 Image --
2016 2 15 12 -24.1 158.5 995 0 0 Image --
< Cyclone 201609 2016 Season Cyclone 201614 >

Help